Eikamaru No.2 — JD3056 — position and weather

sailwx.info

Track history (hours):
 
Tides and Currents Weather Stations Pressure Air Temp Water Temp Dewpoint Dewpoint Depression Visibility Wind Speed Wind Dir Waves Ship Positions

Eikamaru No.2

Last reported at 2015-Jul-26 08:31 UTC. Time now 2015-Jul-29 06:52 UTC.
Position N 34°01' E 135°02'.

Length 60 m; draft 3.3 m.

Type: Tanker. MMSI: 431001342.

Date/timePositionNaut miles runAvg speedWind from/ knotsBaromVisibWave heightAir tempDewpointWater temp
2015-Jul-26 08:31N 34°01' E 135°02'9 9.5
2015-Jul-26 07:34N 34°10' E 135°02'10 9.2
2015-Jul-26 06:30N 34°20' E 135°04'9 9.5
2015-Jul-26 05:32N 34°28' E 135°11'1110.9
2015-Jul-26 04:31N 34°33' E 135°22'3 2.9
2015-Jul-26 03:33N 34°32' E 135°25'0 0.0
2015-Jul-26 02:33N 34°32' E 135°25'0 0.0
2015-Jul-26 01:33N 34°32' E 135°25'0 0.0
2015-Jul-26 00:32N 34°32' E 135°25'0 0.0
2015-Jul-25 23:33N 34°32' E 135°25'0 0.0
2015-Jul-25 22:33N 34°32' E 135°25'2 1.7
2015-Jul-25 21:33N 34°33' E 135°24'3 2.7
2015-Jul-25 20:33N 34°31' E 135°25'0 0.0
2015-Jul-25 19:32N 34°31' E 135°25'0 0.0
2015-Jul-25 18:33N 34°31' E 135°25'0 0.0
2015-Jul-25 17:33N 34°31' E 135°25'0 0.0
2015-Jul-25 16:33N 34°31' E 135°25'0 0.0
2015-Jul-25 15:32N 34°31' E 135°25'0 0.0
2015-Jul-25 14:30N 34°31' E 135°25'0 0.0
2015-Jul-25 13:19N 34°31' E 135°25'0 0.0
2015-Jul-25 12:32N 34°31' E 135°25'0 0.0
2015-Jul-25 11:33N 34°31' E 135°25'0 0.0
2015-Jul-25 10:32N 34°31' E 135°25'0 0.0
2015-Jul-25 09:29N 34°31' E 135°25'0 0.0
2015-Jul-25 08:33N 34°31' E 135°25'0 0.0
2015-Jul-25 07:31N 34°31' E 135°25'0 0.0
2015-Jul-25 06:33N 34°31' E 135°25'0 0.0
2015-Jul-25 05:33N 34°31' E 135°25'0 0.0
2015-Jul-25 04:28N 34°31' E 135°25'0 0.0
2015-Jul-25 03:30N 34°31' E 135°25'0 0.2
2015-Jul-25 02:32N 34°31' E 135°24'1010.1
2015-Jul-25 01:33N 34°28' E 135°13'1212.1
2015-Jul-25 00:34N 34°18' E 135°04'1311.7
2015-Jul-24 23:26N 34°05' E 135°02'  
2015-Jul-21 11:33N 35°13' E 139°47'1111.3
2015-Jul-21 10:33N 35°24' E 139°43'1110.9
2015-Jul-21 09:33N 35°30' E 139°53'1010.0
2015-Jul-21 08:33N 35°33' E 140°05'1 0.8
2015-Jul-21 07:33N 35°32' E 140°06'0 0.0
2015-Jul-21 06:33N 35°32' E 140°06'0 0.1
2015-Jul-21 05:33N 35°32' E 140°06'4 3.6
2015-Jul-21 04:33N 35°36' E 140°05'0 0.0
2015-Jul-21 03:33N 35°36' E 140°05'0 0.0
2015-Jul-21 02:33N 35°36' E 140°05'1 0.8
2015-Jul-21 01:33N 35°35' E 140°04'7 6.6
2015-Jul-21 00:33N 35°41' E 139°59'0 0.0
2015-Jul-20 23:33N 35°41' E 139°59'0 0.0
2015-Jul-20 22:32N 35°41' E 139°59'0 0.0
2015-Jul-20 21:33N 35°41' E 139°59'0 0.0
2015-Jul-20 20:33N 35°41' E 139°59'0 0.0
2015-Jul-20 19:33N 35°41' E 139°59'0 0.0
2015-Jul-20 18:33N 35°41' E 139°59'0 0.0
2015-Jul-20 17:33N 35°41' E 139°59'0 0.0
2015-Jul-20 16:33N 35°41' E 139°59'0 0.0
2015-Jul-20 15:33N 35°41' E 139°59'0 0.0
2015-Jul-20 14:33N 35°41' E 139°59'0 0.0
2015-Jul-20 13:33N 35°41' E 139°59'0 0.0
2015-Jul-20 12:33N 35°41' E 139°59'0 0.0
2015-Jul-20 11:33N 35°41' E 139°59'0 0.0
2015-Jul-20 10:33N 35°41' E 139°59'0 0.0
2015-Jul-20 09:33N 35°41' E 139°59'0 0.0
2015-Jul-20 08:33N 35°41' E 139°59'0 0.0
2015-Jul-20 07:33N 35°41' E 139°59'0 0.0
2015-Jul-20 06:33N 35°41' E 139°59'0 0.0
2015-Jul-20 05:33N 35°41' E 139°59'0 0.0
2015-Jul-20 04:33N 35°41' E 139°59'0 0.0
2015-Jul-20 03:33N 35°41' E 139°59'1 1.2
2015-Jul-20 02:33N 35°39' E 139°59'1211.5
2015-Jul-20 01:33N 35°29' E 139°52'1211.5
2015-Jul-20 00:33N 35°20' E 139°44'1111.2
2015-Jul-19 23:33N 35°09' E 139°47'19 6.4
2015-Jul-19 20:30N 34°59' E 140°07'2511.8
2015-Jul-19 18:24N 35°15' E 140°30'4210.5
2015-Jul-19 14:25N 35°55' E 140°46'26 3.2
2015-Jul-19 06:04N 35°28' E 140°43'811.8
2015-Jul-19 05:26N 35°23' E 140°38'5110.3
2015-Jul-19 00:31N 34°56' E 139°45'1010.1
2015-Jul-18 23:33N 35°06' E 139°45'1110.6
2015-Jul-18 22:34N 35°16' E 139°46'10 9.8
2015-Jul-18 21:34N 35°26' E 139°45'5 4.9
2015-Jul-18 20:33N 35°29' E 139°49'0 0.0
2015-Jul-18 19:33N 35°29' E 139°49'0 0.0
2015-Jul-18 18:34N 35°29' E 139°49'0 0.0
2015-Jul-18 17:33N 35°29' E 139°49'0 0.0
2015-Jul-18 16:34N 35°29' E 139°49'0 0.0
2015-Jul-18 15:33N 35°29' E 139°49'0 0.0
2015-Jul-18 14:33N 35°29' E 139°49'0 0.0
2015-Jul-18 13:33N 35°29' E 139°49'0 0.0
2015-Jul-18 12:33N 35°29' E 139°49'0 0.0
2015-Jul-18 11:33N 35°29' E 139°49'0 0.0
2015-Jul-18 10:33N 35°29' E 139°49'0 0.0
2015-Jul-18 09:34N 35°29' E 139°49'0 0.0
2015-Jul-18 08:33N 35°29' E 139°49'0 0.0
2015-Jul-18 07:33N 35°29' E 139°49'0 0.0
2015-Jul-18 06:33N 35°29' E 139°49'0 0.3
2015-Jul-18 05:33N 35°30' E 139°49'4 3.8
2015-Jul-18 04:33N 35°31' E 139°45'0 0.0
2015-Jul-18 03:33N 35°31' E 139°45'0 0.0
2015-Jul-18 02:33N 35°31' E 139°45'0 0.0
2015-Jul-18 01:33N 35°31' E 139°45'0 0.0
2015-Jul-18 00:33N 35°31' E 139°45'0 0.0
2015-Jul-17 23:33N 35°31' E 139°45'1 0.5
2015-Jul-17 22:33N 35°31' E 139°45'1111.2
2015-Jul-17 21:33N 35°32' E 139°59'0 0.3
2015-Jul-17 20:32N 35°32' E 139°59'0 0.0
2015-Jul-17 19:33N 35°32' E 139°59'0 0.0
2015-Jul-17 18:33N 35°32' E 139°59'0 0.0
2015-Jul-17 17:34N 35°32' E 139°59'0 0.0
2015-Jul-17 16:33N 35°32' E 139°59'0 0.0
2015-Jul-17 15:33N 35°32' E 139°59'0 0.0
2015-Jul-17 14:33N 35°32' E 139°59'0 0.0
2015-Jul-17 13:33N 35°32' E 139°59'0 0.0
2015-Jul-17 12:33N 35°32' E 139°59'0 0.0
2015-Jul-17 11:33N 35°32' E 139°59'0 0.0
2015-Jul-17 10:33N 35°32' E 139°59'0 0.0
2015-Jul-17 09:33N 35°32' E 139°59'0 0.0
2015-Jul-17 08:31N 35°32' E 139°59'0 0.0
2015-Jul-17 07:33N 35°32' E 139°59'0 0.0
2015-Jul-17 06:33N 35°32' E 139°59'0 0.0
2015-Jul-17 05:33N 35°32' E 139°59'0 0.0
2015-Jul-17 04:33N 35°32' E 139°59'0 0.0
2015-Jul-17 03:33N 35°32' E 139°59'0 0.0
2015-Jul-17 02:33N 35°32' E 139°59'0 0.1
2015-Jul-17 01:33N 35°32' E 139°59'0 0.0
2015-Jul-17 00:33N 35°32' E 139°59'0 0.0
2015-Jul-16 23:33N 35°32' E 139°59'0 0.0
2015-Jul-16 22:32N 35°32' E 139°59'0 0.0
2015-Jul-16 21:33N 35°32' E 139°59'0 0.0
2015-Jul-16 20:33N 35°32' E 139°59'0 0.1
2015-Jul-16 19:34N 35°32' E 139°59'0 0.1
2015-Jul-16 18:33N 35°32' E 139°59'0 0.0
2015-Jul-16 17:33N 35°32' E 139°59'0 0.0
2015-Jul-16 16:32N 35°32' E 139°59'0 0.0
2015-Jul-16 15:33N 35°32' E 139°59'0 0.1
2015-Jul-16 14:33N 35°32' E 139°59'0 0.0
2015-Jul-16 13:33N 35°32' E 139°59'0 0.0
2015-Jul-16 12:33N 35°32' E 139°59'0 0.0
2015-Jul-16 11:33N 35°32' E 139°59'0 0.0
2015-Jul-16 10:33N 35°32' E 139°59'0 0.0
2015-Jul-16 09:33N 35°32' E 139°59'0 0.0
2015-Jul-16 08:33N 35°32' E 139°59'  
Track history (hours):
 
Tides and Currents Weather Stations Pressure Air Temp Water Temp Dewpoint Dewpoint Depression Visibility Wind Speed Wind Dir Waves Ship Positions

Eikamaru No.2

Last reported at 2015-Jul-26 08:31 UTC. Time now 2015-Jul-29 06:52 UTC.
Position N 34°01' E 135°02'.

Length 60 m; draft 3.3 m.

Type: Tanker. MMSI: 431001342.

Date/timePositionNaut miles runAvg speedWind from/ knotsBaromVisibWave heightAir tempDewpointWater temp
2015-Jul-26 08:31N 34°01' E 135°02'9 9.5
2015-Jul-26 07:34N 34°10' E 135°02'10 9.2
2015-Jul-26 06:30N 34°20' E 135°04'9 9.5
2015-Jul-26 05:32N 34°28' E 135°11'1110.9
2015-Jul-26 04:31N 34°33' E 135°22'3 2.9
2015-Jul-26 03:33N 34°32' E 135°25'0 0.0
2015-Jul-26 02:33N 34°32' E 135°25'0 0.0
2015-Jul-26 01:33N 34°32' E 135°25'0 0.0
2015-Jul-26 00:32N 34°32' E 135°25'0 0.0
2015-Jul-25 23:33N 34°32' E 135°25'0 0.0
2015-Jul-25 22:33N 34°32' E 135°25'2 1.7
2015-Jul-25 21:33N 34°33' E 135°24'3 2.7
2015-Jul-25 20:33N 34°31' E 135°25'0 0.0
2015-Jul-25 19:32N 34°31' E 135°25'0 0.0
2015-Jul-25 18:33N 34°31' E 135°25'0 0.0
2015-Jul-25 17:33N 34°31' E 135°25'0 0.0
2015-Jul-25 16:33N 34°31' E 135°25'0 0.0
2015-Jul-25 15:32N 34°31' E 135°25'0 0.0
2015-Jul-25 14:30N 34°31' E 135°25'0 0.0
2015-Jul-25 13:19N 34°31' E 135°25'0 0.0
2015-Jul-25 12:32N 34°31' E 135°25'0 0.0
2015-Jul-25 11:33N 34°31' E 135°25'0 0.0
2015-Jul-25 10:32N 34°31' E 135°25'0 0.0
2015-Jul-25 09:29N 34°31' E 135°25'0 0.0
2015-Jul-25 08:33N 34°31' E 135°25'0 0.0
2015-Jul-25 07:31N 34°31' E 135°25'0 0.0
2015-Jul-25 06:33N 34°31' E 135°25'0 0.0
2015-Jul-25 05:33N 34°31' E 135°25'0 0.0
2015-Jul-25 04:28N 34°31' E 135°25'0 0.0
2015-Jul-25 03:30N 34°31' E 135°25'0 0.2
2015-Jul-25 02:32N 34°31' E 135°24'1010.1
2015-Jul-25 01:33N 34°28' E 135°13'1212.1
2015-Jul-25 00:34N 34°18' E 135°04'1311.7
2015-Jul-24 23:26N 34°05' E 135°02'  
2015-Jul-21 11:33N 35°13' E 139°47'1111.3
2015-Jul-21 10:33N 35°24' E 139°43'1110.9
2015-Jul-21 09:33N 35°30' E 139°53'1010.0
2015-Jul-21 08:33N 35°33' E 140°05'1 0.8
2015-Jul-21 07:33N 35°32' E 140°06'0 0.0
2015-Jul-21 06:33N 35°32' E 140°06'0 0.1
2015-Jul-21 05:33N 35°32' E 140°06'4 3.6
2015-Jul-21 04:33N 35°36' E 140°05'0 0.0
2015-Jul-21 03:33N 35°36' E 140°05'0 0.0
2015-Jul-21 02:33N 35°36' E 140°05'1 0.8
2015-Jul-21 01:33N 35°35' E 140°04'7 6.6
2015-Jul-21 00:33N 35°41' E 139°59'0 0.0
2015-Jul-20 23:33N 35°41' E 139°59'0 0.0
2015-Jul-20 22:32N 35°41' E 139°59'0 0.0
2015-Jul-20 21:33N 35°41' E 139°59'0 0.0
2015-Jul-20 20:33N 35°41' E 139°59'0 0.0
2015-Jul-20 19:33N 35°41' E 139°59'0 0.0
2015-Jul-20 18:33N 35°41' E 139°59'0 0.0
2015-Jul-20 17:33N 35°41' E 139°59'0 0.0
2015-Jul-20 16:33N 35°41' E 139°59'0 0.0
2015-Jul-20 15:33N 35°41' E 139°59'0 0.0
2015-Jul-20 14:33N 35°41' E 139°59'0 0.0
2015-Jul-20 13:33N 35°41' E 139°59'0 0.0
2015-Jul-20 12:33N 35°41' E 139°59'0 0.0
2015-Jul-20 11:33N 35°41' E 139°59'0 0.0
2015-Jul-20 10:33N 35°41' E 139°59'0 0.0
2015-Jul-20 09:33N 35°41' E 139°59'0 0.0
2015-Jul-20 08:33N 35°41' E 139°59'0 0.0
2015-Jul-20 07:33N 35°41' E 139°59'0 0.0
2015-Jul-20 06:33N 35°41' E 139°59'0 0.0
2015-Jul-20 05:33N 35°41' E 139°59'0 0.0
2015-Jul-20 04:33N 35°41' E 139°59'0 0.0
2015-Jul-20 03:33N 35°41' E 139°59'1 1.2
2015-Jul-20 02:33N 35°39' E 139°59'1211.5
2015-Jul-20 01:33N 35°29' E 139°52'1211.5
2015-Jul-20 00:33N 35°20' E 139°44'1111.2
2015-Jul-19 23:33N 35°09' E 139°47'19 6.4
2015-Jul-19 20:30N 34°59' E 140°07'2511.8
2015-Jul-19 18:24N 35°15' E 140°30'4210.5
2015-Jul-19 14:25N 35°55' E 140°46'26 3.2
2015-Jul-19 06:04N 35°28' E 140°43'811.8
2015-Jul-19 05:26N 35°23' E 140°38'5110.3
2015-Jul-19 00:31N 34°56' E 139°45'1010.1
2015-Jul-18 23:33N 35°06' E 139°45'1110.6
2015-Jul-18 22:34N 35°16' E 139°46'10 9.8
2015-Jul-18 21:34N 35°26' E 139°45'5 4.9
2015-Jul-18 20:33N 35°29' E 139°49'0 0.0
2015-Jul-18 19:33N 35°29' E 139°49'0 0.0
2015-Jul-18 18:34N 35°29' E 139°49'0 0.0
2015-Jul-18 17:33N 35°29' E 139°49'0 0.0
2015-Jul-18 16:34N 35°29' E 139°49'0 0.0
2015-Jul-18 15:33N 35°29' E 139°49'0 0.0
2015-Jul-18 14:33N 35°29' E 139°49'0 0.0
2015-Jul-18 13:33N 35°29' E 139°49'0 0.0
2015-Jul-18 12:33N 35°29' E 139°49'0 0.0
2015-Jul-18 11:33N 35°29' E 139°49'0 0.0
2015-Jul-18 10:33N 35°29' E 139°49'0 0.0
2015-Jul-18 09:34N 35°29' E 139°49'0 0.0
2015-Jul-18 08:33N 35°29' E 139°49'0 0.0
2015-Jul-18 07:33N 35°29' E 139°49'0 0.0
2015-Jul-18 06:33N 35°29' E 139°49'0 0.3
2015-Jul-18 05:33N 35°30' E 139°49'4 3.8
2015-Jul-18 04:33N 35°31' E 139°45'0 0.0
2015-Jul-18 03:33N 35°31' E 139°45'0 0.0
2015-Jul-18 02:33N 35°31' E 139°45'0 0.0
2015-Jul-18 01:33N 35°31' E 139°45'0 0.0
2015-Jul-18 00:33N 35°31' E 139°45'0 0.0
2015-Jul-17 23:33N 35°31' E 139°45'1 0.5
2015-Jul-17 22:33N 35°31' E 139°45'1111.2
2015-Jul-17 21:33N 35°32' E 139°59'0 0.3
2015-Jul-17 20:32N 35°32' E 139°59'0 0.0
2015-Jul-17 19:33N 35°32' E 139°59'0 0.0
2015-Jul-17 18:33N 35°32' E 139°59'0 0.0
2015-Jul-17 17:34N 35°32' E 139°59'0 0.0
2015-Jul-17 16:33N 35°32' E 139°59'0 0.0
2015-Jul-17 15:33N 35°32' E 139°59'0 0.0
2015-Jul-17 14:33N 35°32' E 139°59'0 0.0
2015-Jul-17 13:33N 35°32' E 139°59'0 0.0
2015-Jul-17 12:33N 35°32' E 139°59'0 0.0
2015-Jul-17 11:33N 35°32' E 139°59'0 0.0
2015-Jul-17 10:33N 35°32' E 139°59'0 0.0
2015-Jul-17 09:33N 35°32' E 139°59'0 0.0
2015-Jul-17 08:31N 35°32' E 139°59'0 0.0
2015-Jul-17 07:33N 35°32' E 139°59'0 0.0
2015-Jul-17 06:33N 35°32' E 139°59'0 0.0
2015-Jul-17 05:33N 35°32' E 139°59'0 0.0
2015-Jul-17 04:33N 35°32' E 139°59'0 0.0
2015-Jul-17 03:33N 35°32' E 139°59'0 0.0
2015-Jul-17 02:33N 35°32' E 139°59'0 0.1
2015-Jul-17 01:33N 35°32' E 139°59'0 0.0
2015-Jul-17 00:33N 35°32' E 139°59'0 0.0
2015-Jul-16 23:33N 35°32' E 139°59'0 0.0
2015-Jul-16 22:32N 35°32' E 139°59'0 0.0
2015-Jul-16 21:33N 35°32' E 139°59'0 0.0
2015-Jul-16 20:33N 35°32' E 139°59'0 0.1
2015-Jul-16 19:34N 35°32' E 139°59'0 0.1
2015-Jul-16 18:33N 35°32' E 139°59'0 0.0
2015-Jul-16 17:33N 35°32' E 139°59'0 0.0
2015-Jul-16 16:32N 35°32' E 139°59'0 0.0
2015-Jul-16 15:33N 35°32' E 139°59'0 0.1
2015-Jul-16 14:33N 35°32' E 139°59'0 0.0
2015-Jul-16 13:33N 35°32' E 139°59'0 0.0
2015-Jul-16 12:33N 35°32' E 139°59'0 0.0
2015-Jul-16 11:33N 35°32' E 139°59'0 0.0
2015-Jul-16 10:33N 35°32' E 139°59'0 0.0
2015-Jul-16 09:33N 35°32' E 139°59'0 0.0
2015-Jul-16 08:33N 35°32' E 139°59'  

Dump ship's entire track history